createdAt,value
2022-08-25T00:08:40.835Z,24
2022-08-25T00:48:40.787Z,24
2022-08-25T01:08:39.974Z,24
2022-08-25T01:28:39.953Z,24.01
2022-08-25T01:48:40.691Z,24.01
2022-08-25T02:08:40.146Z,24.01
2022-08-25T02:28:40.665Z,24.01
2022-08-25T03:28:40.653Z,24.02
2022-08-25T04:08:40.512Z,24.02
2022-08-25T04:28:40.477Z,24.02
2022-08-25T05:08:40.433Z,24.02
2022-08-25T05:28:40.411Z,24.02
2022-08-25T05:48:40.241Z,24.02
2022-08-25T07:48:40.198Z,24.03
2022-08-25T08:28:39.361Z,24.03
2022-08-25T10:08:39.623Z,24.03
2022-08-25T10:28:39.162Z,24.03
2022-08-25T10:48:39.911Z,24.03
2022-08-25T11:08:39.129Z,24.03
2022-08-25T11:28:39.884Z,24.03
2022-08-25T11:48:39.869Z,24.03
2022-08-25T12:08:39.845Z,24.02
2022-08-25T12:28:39.837Z,24.02
2022-08-25T12:48:39.689Z,24.01
2022-08-25T13:08:44.875Z,24
2022-08-25T13:28:40.657Z,23.99
2022-08-25T13:48:39.794Z,23.98
2022-08-25T14:08:39.778Z,23.97
2022-08-25T14:28:39.642Z,23.96
2022-08-25T14:48:39.763Z,23.94
2022-08-25T15:08:39.753Z,23.93
2022-08-25T15:28:39.751Z,23.91
2022-08-25T15:48:39.770Z,23.91
2022-08-25T16:08:39.728Z,23.91
2022-08-25T16:28:39.206Z,23.9
2022-08-25T16:48:39.670Z,23.9
2022-08-25T17:08:39.628Z,23.9
2022-08-25T17:28:39.467Z,23.9
2022-08-25T17:48:39.570Z,23.9
2022-08-25T18:08:38.763Z,23.9
2022-08-25T18:28:39.500Z,23.9
2022-08-25T18:48:39.502Z,23.9
2022-08-25T19:08:39.506Z,23.9
2022-08-25T19:28:39.418Z,23.9
2022-08-25T19:48:39.239Z,23.9
2022-08-25T20:08:38.822Z,23.9
2022-08-25T20:28:38.789Z,23.9
2022-08-25T20:48:39.293Z,23.9
2022-08-25T21:08:39.275Z,23.91
2022-08-25T21:28:39.213Z,23.91
2022-08-25T21:48:39.190Z,23.91
2022-08-25T22:08:38.381Z,23.91
2022-08-25T22:28:39.127Z,23.91
2022-08-25T22:48:39.090Z,23.91
2022-08-25T23:08:40.943Z,23.91
2022-08-25T23:28:39.037Z,23.91
2022-08-25T23:48:39.022Z,23.91
